Time;durP1;ratioP1;P1;durP2;ratioP2;P2;SDS_P1;SDS_P2;PMS_P1;PMS_P2;Temp;Humidity;BMP_temperature;BMP_pressure;BME280_temperature;BME280_humidity;BME280_pressure;Samples;Min_cycle;Max_cycle;Signal;HPM_P1;HPM_P2
2022/07/23 00:00:33;;;;;;;32.35;28.75;;;;;;;21.33;94.71;101257.66;5035249;28;20049;-66
2022/07/23 00:03:06;;;;;;;37.88;27.45;;;;;;;21.23;94.70;101259.13;5028363;28;20046;-67
2022/07/23 00:05:35;;;;;;;39.33;28.55;;;;;;;21.21;95.01;101255.88;5038289;28;20063;-67
2022/07/23 00:08:05;;;;;;;45.70;29.83;;;;;;;21.23;94.84;101256.31;5036190;28;20052;-67
2022/07/23 00:10:38;;;;;;;39.78;29.95;;;;;;;21.19;94.65;101253.44;5045057;28;20042;-67
2022/07/23 00:13:05;;;;;;;37.63;30.25;;;;;;;21.06;95.47;101256.78;5040062;28;20061;-66
2022/07/23 00:15:33;;;;;;;36.08;29.42;;;;;;;21.06;96.16;101254.00;5070132;28;20084;-67
2022/07/23 00:18:00;;;;;;;36.90;29.60;;;;;;;21.33;94.73;101261.28;5040521;28;20042;-67
2022/07/23 00:20:27;;;;;;;35.90;29.33;;;;;;;21.30;93.41;101256.44;5042879;28;20049;-67
2022/07/23 00:22:55;;;;;;;36.03;28.77;;;;;;;21.22;93.99;101263.91;5030995;28;20045;-67
2022/07/23 00:25:23;;;;;;;36.03;28.95;;;;;;;21.29;93.68;101251.22;5027657;28;20053;-68
2022/07/23 00:27:56;;;;;;;37.90;28.45;;;;;;;21.33;93.62;101250.09;5029096;28;20053;-67
2022/07/23 00:30:23;;;;;;;39.47;28.85;;;;;;;21.20;93.72;101252.25;5032086;28;20049;-67
2022/07/23 00:32:53;;;;;;;37.45;28.15;;;;;;;21.28;94.17;101250.41;5041968;28;20499;-68
2022/07/23 00:35:24;;;;;;;36.38;28.33;;;;;;;21.42;92.98;101247.03;5050824;28;20057;-67
2022/07/23 00:37:51;;;;;;;32.35;27.25;;;;;;;21.16;94.18;101254.19;5027430;28;20167;-68
2022/07/23 00:40:19;;;;;;;35.47;28.90;;;;;;;21.12;94.72;101246.88;5036321;28;20393;-65
2022/07/23 00:42:46;;;;;;;33.72;27.20;;;;;;;21.14;94.22;101250.94;5040088;28;20064;-67
2022/07/23 00:45:13;;;;;;;33.90;28.35;;;;;;;20.99;95.15;101248.25;5035073;28;20061;-67
2022/07/23 00:47:41;;;;;;;38.80;30.33;;;;;;;21.29;94.93;101254.81;5041573;28;20046;-65
2022/07/23 00:50:09;;;;;;;36.67;28.00;;;;;;;21.21;93.88;101251.09;5041772;28;20061;-68
2022/07/23 00:52:38;;;;;;;35.85;28.13;;;;;;;21.16;94.24;101239.38;5020597;28;20054;-67
2022/07/23 00:55:06;;;;;;;33.70;27.38;;;;;;;21.38;93.19;101246.97;5015496;28;20056;-64
2022/07/23 00:57:34;;;;;;;35.30;28.25;;;;;;;21.37;92.45;101241.75;5023749;28;20072;-66
2022/07/23 01:00:02;;;;;;;36.40;28.23;;;;;;;21.24;92.87;101246.72;5038374;28;20060;-67
2022/07/23 01:02:30;;;;;;;33.85;27.27;;;;;;;21.10;93.95;101238.84;5030804;28;20046;-64
2022/07/23 01:04:57;;;;;;;39.42;28.83;;;;;;;21.20;93.07;101249.44;5051253;28;20057;-64
2022/07/23 01:07:24;;;;;;;36.63;27.58;;;;;;;21.07;93.34;101252.78;5033771;28;20054;-67
2022/07/23 01:09:52;;;;;;;35.33;27.08;;;;;;;21.10;93.12;101244.47;5028376;28;20061;-66
2022/07/23 01:12:19;;;;;;;35.83;26.35;;;;;;;20.78;94.24;101253.38;5056298;28;20052;-66
2022/07/23 01:15:13;;;;;;;33.97;26.73;;;;;;;20.80;95.14;101251.03;5031861;28;20060;-67
2022/07/23 01:17:40;;;;;;;36.25;26.65;;;;;;;20.68;95.07;101251.16;5040178;28;20060;-67
2022/07/23 01:20:08;;;;;;;36.28;26.60;;;;;;;20.70;95.26;101246.00;5042370;28;20053;-68
2022/07/23 01:22:35;;;;;;;39.17;26.67;;;;;;;20.52;96.23;101250.44;5046200;28;20050;-68
2022/07/23 01:25:03;;;;;;;40.60;27.45;;;;;;;20.35;97.71;101248.88;5040909;28;20075;-64
2022/07/23 01:27:31;;;;;;;35.15;25.52;;;;;;;20.30;98.90;101242.75;5044455;28;20493;-65
2022/07/23 01:30:04;;;;;;;36.47;26.60;;;;;;;20.20;99.62;101243.31;5043491;28;20068;-65
2022/07/23 01:32:31;;;;;;;32.10;25.92;;;;;;;20.19;100.00;101244.50;5027979;28;20517;-65
2022/07/23 01:34:58;;;;;;;33.17;24.17;;;;;;;20.45;98.86;101241.91;5012079;28;20057;-65
2022/07/23 01:37:26;;;;;;;34.53;25.52;;;;;;;20.56;97.04;101240.94;5065179;28;20052;-66
2022/07/23 01:39:54;;;;;;;32.60;23.83;;;;;;;20.68;95.58;101245.56;5021986;28;20072;-68
2022/07/23 01:42:23;;;;;;;31.83;23.63;;;;;;;20.60;95.40;101244.63;5036309;28;20141;-68
2022/07/23 01:44:50;;;;;;;32.33;23.05;;;;;;;20.73;95.58;101237.69;5031797;28;20407;-68
2022/07/23 01:47:20;;;;;;;30.35;23.23;;;;;;;20.52;95.41;101233.66;5022979;28;20056;-64
2022/07/23 01:49:51;;;;;;;30.63;22.58;;;;;;;20.72;94.43;101235.25;5027602;28;20065;-68
2022/07/23 01:52:37;;;;;;;34.72;22.80;;;;;;;20.57;94.15;101234.16;5040063;28;20060;-67
2022/07/23 01:55:05;;;;;;;32.75;23.42;;;;;;;20.41;94.88;101238.19;5048579;28;20061;-65
2022/07/23 01:57:33;;;;;;;33.75;22.58;;;;;;;20.54;95.45;101231.28;5038079;28;20080;-65
2022/07/23 02:00:01;;;;;;;28.52;21.73;;;;;;;20.50;95.33;101233.19;5032048;28;20049;-68
2022/07/23 02:02:39;;;;;;;32.65;22.73;;;;;;;20.59;94.99;101242.19;5036320;28;20049;-65
2022/07/23 02:05:07;;;;;;;32.08;21.25;;;;;;;20.66;93.12;101236.75;5032898;28;20054;-65
2022/07/23 02:07:35;;;;;;;28.45;21.13;;;;;;;20.51;94.91;101244.03;5028559;28;20050;-64
2022/07/23 02:10:03;;;;;;;29.77;21.58;;;;;;;20.59;94.81;101240.19;5042413;28;20468;-69
2022/07/23 02:12:30;;;;;;;29.33;20.83;;;;;;;20.80;93.32;101242.63;5018002;28;20050;-65
2022/07/23 02:14:57;;;;;;;34.72;22.35;;;;;;;20.54;94.01;101237.69;5040978;28;20056;-64
2022/07/23 02:17:25;;;;;;;30.15;20.70;;;;;;;20.60;94.26;101236.22;5044009;28;20053;-64
2022/07/23 02:19:53;;;;;;;36.25;21.98;;;;;;;20.43;94.49;101241.44;5031188;28;20061;-64
2022/07/23 02:22:21;;;;;;;30.20;21.90;;;;;;;20.41;95.49;101241.81;5035699;28;20050;-67
2022/07/23 02:24:49;;;;;;;26.70;21.55;;;;;;;20.45;95.28;101239.88;5025551;28;20079;-68
2022/07/23 02:27:16;;;;;;;30.13;22.00;;;;;;;20.32;95.79;101244.00;5031097;28;20061;-68
2022/07/23 02:29:44;;;;;;;27.08;21.25;;;;;;;20.41;95.71;101243.78;5051998;28;20055;-64
2022/07/23 02:32:13;;;;;;;29.33;21.20;;;;;;;20.47;95.64;101248.72;5047845;28;20049;-65
2022/07/23 02:34:41;;;;;;;27.73;21.35;;;;;;;20.60;94.82;101249.41;5042579;28;20049;-64
2022/07/23 02:37:08;;;;;;;35.08;19.55;;;;;;;20.69;93.74;101252.78;5016359;28;20069;-63
2022/07/23 02:39:36;;;;;;;30.50;22.45;;;;;;;20.34;95.12;101258.44;5050659;28;20084;-67
2022/07/23 02:42:04;;;;;;;29.67;22.05;;;;;;;20.61;94.66;101259.41;5043876;28;20042;-66
2022/07/23 02:44:34;;;;;;;29.95;22.40;;;;;;;20.55;93.65;101260.91;5042025;28;20053;-67
2022/07/23 02:47:01;;;;;;;29.70;22.17;;;;;;;20.45;95.46;101258.69;5042802;28;20053;-63
2022/07/23 02:49:29;;;;;;;31.13;21.92;;;;;;;20.42;95.24;101271.41;5027522;28;20456;-64
2022/07/23 02:51:56;;;;;;;28.45;23.02;;;;;;;20.38;96.73;101261.31;5054888;28;20073;-65
2022/07/23 02:54:24;;;;;;;29.88;22.70;;;;;;;20.21;96.97;101259.75;5013751;28;20059;-64
2022/07/23 02:56:52;;;;;;;30.95;21.27;;;;;;;20.30;96.76;101263.16;5028989;28;20064;-64
2022/07/23 02:59:19;;;;;;;27.20;20.90;;;;;;;20.49;95.80;101262.34;5031662;28;20049;-64
2022/07/23 03:01:47;;;;;;;26.98;20.08;;;;;;;20.44;95.01;101263.47;5016711;28;20512;-64
2022/07/23 03:04:15;;;;;;;31.17;20.65;;;;;;;20.33;95.08;101259.59;5022057;28;20358;-64
2022/07/23 03:06:42;;;;;;;25.55;20.67;;;;;;;20.35;96.08;101262.84;5031639;28;20046;-64
2022/07/23 03:09:10;;;;;;;29.10;23.67;;;;;;;20.49;95.13;101270.75;5030756;28;20056;-64
2022/07/23 03:11:39;;;;;;;31.55;24.08;;;;;;;20.31;96.35;101264.75;5034207;28;20054;-64
2022/07/23 03:14:07;;;;;;;37.03;24.88;;;;;;;20.28;97.83;101287.88;5020745;28;20066;-67
2022/07/23 03:16:36;;;;;;;31.95;26.30;;;;;;;20.15;98.75;101291.94;5031904;28;20045;-64
2022/07/23 03:19:04;;;;;;;36.75;25.77;;;;;;;20.08;99.76;101275.78;5026468;28;20056;-64
2022/07/23 03:21:34;;;;;;;38.55;26.70;;;;;;;20.03;100.00;101278.88;5036702;28;20064;-68
2022/07/23 03:24:01;;;;;;;30.25;26.00;;;;;;;20.14;100.00;101284.72;5030793;28;20061;-67
2022/07/23 03:26:29;;;;;;;32.42;25.70;;;;;;;20.37;100.00;101271.69;5007755;28;20060;-67
2022/07/23 03:28:57;;;;;;;32.38;26.55;;;;;;;20.28;98.87;101282.28;5025649;28;20099;-67
2022/07/23 03:31:25;;;;;;;32.33;26.38;;;;;;;20.23;99.87;101282.56;5039240;28;20136;-67
2022/07/23 03:33:52;;;;;;;34.20;25.90;;;;;;;20.32;99.62;101285.16;5033603;28;20060;-64
2022/07/23 03:36:20;;;;;;;36.97;28.13;;;;;;;20.15;100.00;101287.16;5065386;28;20049;-64
2022/07/23 03:38:50;;;;;;;34.35;27.42;;;;;;;20.07;100.00;101292.94;5048455;28;20046;-63
2022/07/23 03:41:19;;;;;;;35.88;27.20;;;;;;;20.13;100.00;101288.69;5054907;28;20389;-64
2022/07/23 03:43:47;;;;;;;36.50;29.42;;;;;;;20.18;100.00;101288.44;5033466;28;20049;-66
2022/07/23 03:46:14;;;;;;;37.38;29.67;;;;;;;20.12;100.00;101299.06;5038210;28;20049;-67
2022/07/23 03:48:41;;;;;;;45.30;31.05;;;;;;;19.71;100.00;101299.66;5040889;28;20050;-67
2022/07/23 03:51:09;;;;;;;40.65;31.02;;;;;;;19.44;100.00;101294.16;5040132;28;20069;-68
2022/07/23 03:53:37;;;;;;;41.47;31.38;;;;;;;19.57;100.00;101304.88;5025650;28;20444;-64
2022/07/23 03:56:05;;;;;;;42.97;29.15;;;;;;;19.65;100.00;101303.88;5025010;28;20050;-67
2022/07/23 03:58:33;;;;;;;44.00;29.42;;;;;;;19.62;100.00;101304.59;5019531;28;20613;-68
2022/07/23 04:01:01;;;;;;;39.00;27.35;;;;;;;19.46;100.00;101309.38;5037314;28;20061;-64
2022/07/23 04:03:28;;;;;;;38.65;26.15;;;;;;;19.54;100.00;101302.00;5046758;28;20041;-67
2022/07/23 04:05:56;;;;;;;29.75;23.90;;;;;;;19.61;100.00;101304.97;5033573;28;20064;-67
2022/07/23 04:08:25;;;;;;;31.63;24.50;;;;;;;20.04;100.00;101307.66;5031073;28;20061;-64
2022/07/23 04:10:53;;;;;;;32.00;25.35;;;;;;;19.88;100.00;101304.88;5033415;28;20076;-64
2022/07/23 04:13:21;;;;;;;32.40;25.25;;;;;;;19.90;100.00;101310.94;5031840;28;20054;-64
2022/07/23 04:15:50;;;;;;;34.30;23.02;;;;;;;19.95;99.93;101316.25;5038808;28;20076;-66
2022/07/23 04:18:18;;;;;;;38.50;22.77;;;;;;;20.11;98.64;101319.84;5032991;28;20069;-64
2022/07/23 04:20:53;;;;;;;35.20;23.95;;;;;;;19.99;98.29;101321.91;5034039;28;20092;-64
2022/07/23 04:23:21;;;;;;;37.70;25.35;;;;;;;19.92;98.51;101318.94;5016005;28;20049;-68
2022/07/23 04:25:49;;;;;;;44.58;27.15;;;;;;;19.73;100.00;101311.28;5026149;28;20053;-63
2022/07/23 04:28:17;;;;;;;38.17;26.35;;;;;;;19.86;99.73;101312.00;5039115;28;20053;-64
2022/07/23 04:30:45;;;;;;;40.90;25.73;;;;;;;20.11;97.75;101313.44;5045177;28;20054;-64
2022/07/23 04:33:14;;;;;;;36.75;25.92;;;;;;;19.92;97.23;101316.97;5037262;28;20508;-67
2022/07/23 04:35:41;;;;;;;38.65;24.83;;;;;;;19.95;97.56;101312.63;5034986;28;20057;-65
2022/07/23 04:38:18;;;;;;;34.30;23.35;;;;;;;19.65;97.94;101314.28;5003826;28;20058;-64
2022/07/23 04:40:47;;;;;;;38.00;24.08;;;;;;;19.72;98.56;101318.03;5035867;28;20053;-63
2022/07/23 04:43:14;;;;;;;33.92;22.08;;;;;;;19.57;97.64;101309.66;5030701;28;20046;-63
2022/07/23 04:45:47;;;;;;;31.35;21.40;;;;;;;19.54;97.46;101315.97;5024478;28;20053;-64
2022/07/23 04:48:14;;;;;;;29.08;19.42;;;;;;;19.67;96.41;101314.69;5032794;28;20065;-64
2022/07/23 04:50:43;;;;;;;30.08;20.95;;;;;;;19.61;96.88;101314.19;5041694;28;20064;-63
2022/07/23 04:53:25;;;;;;;31.05;21.20;;;;;;;19.74;96.24;101318.50;5033250;28;20062;-63
2022/07/23 04:55:56;;;;;;;27.23;19.55;;;;;;;19.69;96.08;101318.78;5045612;28;20234;-63
2022/07/23 04:58:25;;;;;;;33.87;22.17;;;;;;;19.69;97.54;101329.94;5030768;28;20104;-64
2022/07/23 05:00:52;;;;;;;29.02;22.23;;;;;;;19.75;97.45;101322.91;5040053;28;20053;-67
2022/07/23 05:03:20;;;;;;;27.50;20.80;;;;;;;19.86;97.59;101326.78;5039014;28;20045;-64
2022/07/23 05:05:48;;;;;;;30.52;21.55;;;;;;;19.98;95.91;101332.28;5040831;28;20049;-64
2022/07/23 05:08:17;;;;;;;36.03;20.65;;;;;;;20.05;95.37;101338.06;5036587;28;20493;-64
2022/07/23 05:10:49;;;;;;;32.28;19.75;;;;;;;20.04;94.92;101332.81;5050658;28;20060;-64
2022/07/23 05:13:19;;;;;;;29.98;20.30;;;;;;;20.11;94.22;101336.63;5022659;28;20046;-64
2022/07/23 05:15:46;;;;;;;28.95;18.90;;;;;;;20.27;91.36;101342.22;5043226;28;20384;-65
2022/07/23 05:18:14;;;;;;;24.40;18.25;;;;;;;19.94;92.40;101333.38;5045635;28;20056;-64
2022/07/23 05:20:43;;;;;;;29.80;19.15;;;;;;;19.76;93.70;101330.13;5033962;28;20052;-65
2022/07/23 05:23:14;;;;;;;27.88;19.38;;;;;;;19.50;95.54;101346.59;5036261;28;20056;-65
2022/07/23 05:25:42;;;;;;;32.03;18.30;;;;;;;19.52;96.93;101332.28;5016226;28;20068;-64
2022/07/23 05:28:10;;;;;;;23.30;17.90;;;;;;;19.95;94.95;101332.19;5048389;28;20053;-65
2022/07/23 05:30:37;;;;;;;30.23;20.05;;;;;;;19.78;92.77;101330.59;5047010;28;20049;-67
2022/07/23 05:33:08;;;;;;;27.75;20.13;;;;;;;19.46;96.86;101328.94;5038826;28;20042;-68
2022/07/23 05:35:36;;;;;;;32.08;21.35;;;;;;;19.72;96.06;101334.81;5025012;28;20448;-69
2022/07/23 05:38:19;;;;;;;32.00;22.25;;;;;;;19.55;97.46;101329.56;5036676;28;20413;-68
2022/07/23 05:40:48;;;;;;;36.40;23.83;;;;;;;19.52;97.86;101337.88;5037074;28;20084;-68
2022/07/23 05:43:15;;;;;;;36.67;24.00;;;;;;;19.54;98.27;101330.75;5029585;28;20041;-68
2022/07/23 05:45:43;;;;;;;34.38;24.83;;;;;;;19.62;98.28;101326.16;5037967;28;20044;-64
2022/07/23 05:48:10;;;;;;;33.92;24.50;;;;;;;19.51;98.95;101331.44;5062731;28;20503;-68
2022/07/23 05:50:47;;;;;;;37.47;27.17;;;;;;;19.40;100.00;101346.31;5037909;28;20052;-64
2022/07/23 05:53:25;;;;;;;39.58;27.45;;;;;;;19.59;100.00;101350.06;5031033;28;20508;-64
2022/07/23 05:56:05;;;;;;;;;;;;;;;19.47;98.99;101354.91;5048716;28;20059;-64
2022/07/23 05:58:32;;;;;;;44.60;30.33;;;;;;;19.44;99.80;101356.41;5041671;28;20387;-64
2022/07/23 06:00:59;;;;;;;45.20;29.52;;;;;;;19.53;100.00;101354.25;5033580;28;20515;-64
2022/07/23 06:03:30;;;;;;;45.42;31.08;;;;;;;19.41;100.00;101348.75;5031492;28;20049;-68
2022/07/23 06:05:58;;;;;;;46.17;30.73;;;;;;;19.67;100.00;101348.25;5051801;28;20057;-68
2022/07/23 06:08:26;;;;;;;45.22;30.50;;;;;;;19.88;99.49;101344.03;5029449;28;20046;-65
2022/07/23 06:10:54;;;;;;;44.35;31.63;;;;;;;19.84;97.91;101348.69;5061773;28;20056;-69
2022/07/23 06:13:21;;;;;;;41.25;29.73;;;;;;;19.85;99.11;101346.72;5049853;28;20041;-69
2022/07/23 06:15:49;;;;;;;47.47;32.00;;;;;;;19.80;98.40;101347.00;5038795;28;20056;-65
2022/07/23 06:18:16;;;;;;;46.80;31.48;;;;;;;19.86;97.62;101359.53;5025311;28;20045;-65
2022/07/23 06:20:43;;;;;;;44.42;31.60;;;;;;;19.47;100.00;101361.31;5027308;28;20060;-71
2022/07/23 06:23:16;;;;;;;46.45;31.92;;;;;;;19.76;99.68;101355.28;5063643;28;20057;-69
2022/07/23 06:25:44;;;;;;;49.42;32.55;;;;;;;19.47;100.00;101368.88;5042967;28;20072;-69
2022/07/23 06:28:13;;;;;;;52.55;34.92;;;;;;;19.25;100.00;101367.41;5035635;28;20061;-65
2022/07/23 06:30:41;;;;;;;50.40;33.97;;;;;;;19.58;100.00;101370.78;5046074;28;20420;-65
2022/07/23 06:33:11;;;;;;;47.95;33.42;;;;;;;19.48;100.00;101374.09;5040899;28;20072;-69
2022/07/23 06:35:38;;;;;;;57.85;35.30;;;;;;;19.47;100.00;101380.03;5048275;28;20420;-64
2022/07/23 06:38:07;;;;;;;54.83;34.88;;;;;;;19.50;100.00;101382.94;5031171;28;20428;-64
2022/07/23 06:40:35;;;;;;;58.10;36.58;;;;;;;19.33;100.00;101386.06;5038865;28;20060;-69
2022/07/23 06:43:02;;;;;;;56.33;35.15;;;;;;;19.34;100.00;101392.44;5026252;28;20524;-68
2022/07/23 06:45:31;;;;;;;59.38;36.58;;;;;;;19.39;100.00;101383.78;5017439;28;20050;-68
2022/07/23 06:47:59;;;;;;;57.83;36.17;;;;;;;19.52;100.00;101380.59;5032065;28;20049;-68
2022/07/23 06:50:28;;;;;;;61.63;37.47;;;;;;;19.56;99.66;101381.50;5032845;28;20068;-68
2022/07/23 06:52:55;;;;;;;59.83;36.05;;;;;;;19.66;99.73;101381.00;5026615;28;20068;-67
2022/07/23 06:55:23;;;;;;;60.97;38.15;;;;;;;19.61;98.63;101378.47;5034686;28;20050;-68
2022/07/23 06:57:50;;;;;;;57.17;35.92;;;;;;;19.68;99.03;101378.63;5029483;28;20050;-68
2022/07/23 07:00:17;;;;;;;64.20;38.50;;;;;;;19.70;98.42;101376.28;5028463;28;20045;-67
2022/07/23 07:02:45;;;;;;;60.35;39.42;;;;;;;19.86;97.85;101385.50;5044426;28;20389;-67
2022/07/23 07:05:12;;;;;;;60.80;39.00;;;;;;;19.80;97.78;101386.13;5039189;28;20033;-63
2022/07/23 07:07:40;;;;;;;60.00;38.42;;;;;;;19.95;97.49;101377.75;5023861;28;20045;-67
2022/07/23 07:10:07;;;;;;;59.55;37.95;;;;;;;20.21;97.20;101398.81;5052886;28;20048;-67
2022/07/23 07:12:42;;;;;;;57.72;36.05;;;;;;;20.41;94.08;101403.31;5041255;28;20045;-64
2022/07/23 07:15:09;;;;;;;52.40;35.65;;;;;;;20.50;94.33;101390.75;5034674;28;20037;-63
2022/07/23 07:17:37;;;;;;;57.80;35.10;;;;;;;20.56;92.61;101399.66;5030457;28;20061;-64
2022/07/23 07:20:05;;;;;;;53.58;36.22;;;;;;;20.50;91.76;101406.72;5036090;28;20049;-64
2022/07/23 07:22:33;;;;;;;53.60;36.35;;;;;;;20.41;93.63;101404.13;5026468;28;20057;-64
2022/07/23 07:25:00;;;;;;;59.13;36.47;;;;;;;20.35;93.10;101413.97;5034346;28;20049;-64
2022/07/23 07:27:27;;;;;;;62.10;36.80;;;;;;;19.95;96.46;101418.88;5031012;28;20052;-65
2022/07/23 07:29:55;;;;;;;61.70;37.70;;;;;;;20.33;95.60;101423.91;5031142;28;20046;-65
2022/07/23 07:32:22;;;;;;;64.78;38.80;;;;;;;19.99;95.70;101428.19;5034527;28;20072;-65
2022/07/23 07:35:09;;;;;;;59.70;38.10;;;;;;;20.08;96.79;101420.44;5040018;28;20045;-68
2022/07/23 07:37:37;;;;;;;64.90;39.28;;;;;;;20.17;95.53;101417.50;5003003;28;20056;-67
2022/07/23 07:40:05;;;;;;;58.40;37.38;;;;;;;20.32;94.91;101425.06;5038715;28;20050;-69
2022/07/23 07:42:32;;;;;;;67.03;38.15;;;;;;;20.50;93.28;101429.13;5049196;28;20069;-67
2022/07/23 07:45:00;;;;;;;57.88;36.47;;;;;;;20.92;92.13;101421.72;5023769;28;20042;-64
2022/07/23 07:47:27;;;;;;;61.58;36.80;;;;;;;20.65;91.03;101425.47;5034143;28;20056;-64
2022/07/23 07:49:56;;;;;;;60.55;38.53;;;;;;;20.44;92.32;101422.97;5032842;28;20123;-64
2022/07/23 07:52:23;;;;;;;60.83;38.10;;;;;;;20.54;93.39;101428.03;5044353;28;20060;-64
2022/07/23 07:54:51;;;;;;;57.70;34.03;;;;;;;20.81;91.16;101429.88;5033483;28;20599;-65
2022/07/23 07:57:18;;;;;;;60.90;32.65;;;;;;;20.94;90.54;101433.34;5026459;28;20056;-63
2022/07/23 07:59:45;;;;;;;60.92;32.40;;;;;;;21.05;89.13;101426.84;5037715;28;20049;-64
2022/07/23 08:02:13;;;;;;;64.95;33.38;;;;;;;21.02;87.79;101432.38;5042155;28;20057;-63
2022/07/23 08:04:40;;;;;;;71.10;35.05;;;;;;;20.91;89.33;101437.72;5030415;28;20045;-65
2022/07/23 08:07:08;;;;;;;55.25;31.48;;;;;;;21.22;88.80;101437.63;5042078;28;20053;-68
2022/07/23 08:09:35;;;;;;;62.95;32.67;;;;;;;21.51;87.28;101443.84;5034771;28;20066;-69
2022/07/23 08:12:03;;;;;;;62.85;33.50;;;;;;;21.27;87.38;101444.91;5028755;28;20484;-67
2022/07/23 08:14:30;;;;;;;63.50;33.05;;;;;;;21.25;88.43;101442.50;5031144;28;20845;-67
2022/07/23 08:16:58;;;;;;;67.60;35.08;;;;;;;20.95;88.12;101435.81;5042531;28;20087;-68
2022/07/23 08:19:42;;;;;;;58.80;32.45;;;;;;;21.22;88.89;101446.03;5035798;28;20492;-67
2022/07/23 08:22:09;;;;;;;61.22;32.10;;;;;;;21.63;86.36;101443.66;5018891;28;20057;-64
2022/07/23 08:24:36;;;;;;;55.72;30.05;;;;;;;21.96;83.47;101447.56;5032091;28;20053;-64
2022/07/23 08:27:04;;;;;;;57.47;32.53;;;;;;;22.01;81.57;101444.44;5032067;28;20053;-63
2022/07/23 08:29:31;;;;;;;53.58;30.95;;;;;;;22.11;81.09;101448.63;5034259;28;20054;-63
2022/07/23 08:31:58;;;;;;;53.72;30.17;;;;;;;22.20;80.69;101450.00;5016580;28;20053;-64
2022/07/23 08:34:36;;;;;;;51.38;31.83;;;;;;;22.42;78.59;101461.59;5035375;28;20049;-62
2022/07/23 08:37:10;;;;;;;47.47;29.33;;;;;;;22.43;77.82;101468.84;5034268;28;20056;-62
2022/07/23 08:39:37;;;;;;;53.47;31.98;;;;;;;21.73;80.13;101474.72;5034928;28;20419;-62
2022/07/23 08:42:06;;;;;;;52.65;33.55;;;;;;;21.34;81.55;101480.72;5028962;28;20049;-64
2022/07/23 08:44:35;;;;;;;49.20;32.42;;;;;;;21.49;82.28;101483.44;5027086;28;20053;-63
2022/07/23 08:47:02;;;;;;;48.90;31.27;;;;;;;21.25;83.42;101476.13;5036052;28;20060;-63
2022/07/23 08:49:30;;;;;;;50.78;29.25;;;;;;;21.73;81.75;101473.91;5036473;28;20504;-63
2022/07/23 08:51:59;;;;;;;50.15;30.92;;;;;;;21.43;81.46;101467.31;5039187;28;20050;-62
2022/07/23 08:54:26;;;;;;;45.20;29.80;;;;;;;21.68;81.89;101474.22;5028779;28;20045;-63
2022/07/23 08:56:53;;;;;;;55.35;32.58;;;;;;;20.93;83.26;101480.16;5029483;28;20045;-63
2022/07/23 08:59:21;;;;;;;52.30;29.58;;;;;;;21.17;84.17;101485.56;5025550;28;20045;-69
2022/07/23 09:01:48;;;;;;;62.55;31.05;;;;;;;21.14;83.27;101483.50;5025193;28;20061;-63
2022/07/23 09:04:15;;;;;;;47.35;28.70;;;;;;;21.55;82.61;101476.34;5015400;28;20045;-62
2022/07/23 09:06:43;;;;;;;41.33;27.80;;;;;;;21.83;80.42;101476.97;5039247;28;20049;-65
2022/07/23 09:09:20;;;;;;;46.95;28.15;;;;;;;22.08;78.84;101481.06;5043549;28;20516;-64
2022/07/23 09:12:05;;;;;;;48.08;28.20;;;;;;;22.19;77.84;101482.03;5039770;28;20058;-74
2022/07/23 09:14:39;;;;;;;48.47;30.02;;;;;;;21.82;77.79;101488.56;5027408;28;20053;-73
2022/07/23 09:17:10;;;;;;;49.40;28.75;;;;;;;22.00;79.14;101475.69;5047336;28;20042;-68
2022/07/23 09:19:38;;;;;;;44.65;26.92;;;;;;;22.26;77.22;101475.78;5035235;28;20065;-74
2022/07/23 09:22:26;;;;;;;49.20;29.00;;;;;;;22.42;76.44;101476.44;5028484;28;20060;-71
2022/07/23 09:25:13;;;;;;;46.28;28.27;;;;;;;22.43;76.30;101477.25;5028336;28;20493;-74
2022/07/23 09:28:02;;;;;;;56.40;27.77;;;;;;;22.57;75.28;101472.72;5045710;28;20048;-72
2022/07/23 09:30:32;;;;;;;50.85;27.60;;;;;;;22.51;75.51;101479.81;5031290;28;20049;-71
2022/07/23 09:33:11;;;;;;;44.60;27.40;;;;;;;22.48;75.00;101472.13;5034872;28;20049;-75
2022/07/23 09:35:48;;;;;;;40.85;26.90;;;;;;;22.63;74.41;101467.63;5030494;28;20049;-76
2022/07/23 09:38:17;;;;;;;44.13;26.25;;;;;;;22.23;74.61;101477.31;5020965;28;20045;-69
2022/07/23 09:40:46;;;;;;;38.25;26.63;;;;;;;21.88;76.67;101473.06;5024163;28;20065;-69
2022/07/23 09:43:27;;;;;;;37.80;25.90;;;;;;;21.78;77.08;101465.22;5039536;28;20049;-76
2022/07/23 09:46:23;;;;;;;36.72;24.30;;;;;;;22.26;75.83;101468.13;5033403;28;20049;-70
2022/07/23 09:48:56;;;;;;;39.08;27.92;;;;;;;22.20;75.13;101471.63;5034390;28;20049;-68
2022/07/23 09:53:52;;;;;;;44.75;26.80;;;;;;;21.98;77.99;101475.25;5062276;28;20389;-68
2022/07/23 09:56:20;;;;;;;46.58;27.67;;;;;;;22.25;76.94;101474.94;5034603;28;20052;-69
2022/07/23 09:59:14;;;;;;;45.10;30.50;;;;;;;22.05;77.04;101466.97;5063720;28;20424;-69
2022/07/23 10:01:42;;;;;;;42.75;28.80;;;;;;;22.14;77.53;101473.94;5034028;28;20052;-69
2022/07/23 10:04:10;;;;;;;47.15;28.65;;;;;;;22.36;76.69;101466.72;5047711;28;20059;-69
2022/07/23 10:07:05;;;;;;;41.70;26.27;;;;;;;22.66;75.38;101466.84;5014253;28;20053;-69
2022/07/23 10:09:52;;;;;;;41.17;26.00;;;;;;;22.94;74.30;101462.50;5031117;28;20052;-69
2022/07/23 10:15:23;;;;;;;37.55;25.55;;;;;;;23.41;71.97;101462.75;5021355;28;20045;-76
2022/07/23 10:17:50;;;;;;;34.75;23.20;;;;;;;23.65;70.56;101464.25;5038445;28;20048;-76
2022/07/23 10:20:17;;;;;;;35.53;24.02;;;;;;;23.42;70.33;101470.00;5036337;28;20069;-76
2022/07/23 10:23:27;;;;;;;32.30;23.73;;;;;;;23.13;71.02;101469.97;5011577;28;20484;-69
2022/07/23 10:26:19;;;;;;;35.00;22.33;;;;;;;22.80;73.42;101462.28;5018329;28;20057;-69
2022/07/23 10:29:06;;;;;;;34.00;23.15;;;;;;;23.04;71.93;101461.81;5033952;28;20490;-67
2022/07/23 10:32:02;;;;;;;34.90;24.30;;;;;;;23.25;71.92;101461.31;5034057;28;20068;-76
2022/07/23 10:34:44;;;;;;;33.55;21.95;;;;;;;23.53;70.02;101458.91;5039546;28;20543;-77
2022/07/23 10:37:19;;;;;;;35.97;20.65;;;;;;;23.60;69.85;101458.16;5029287;28;20050;-77
2022/07/23 10:39:48;;;;;;;27.35;19.90;;;;;;;23.54;69.13;101460.50;5040232;28;20049;-76
2022/07/23 10:42:17;;;;;;;30.30;20.48;;;;;;;23.60;68.99;101472.22;5023754;28;20073;-76
2022/07/23 10:44:48;;;;;;;28.52;18.92;;;;;;;23.83;67.93;101481.34;5029404;28;20530;-75
2022/07/23 10:47:45;;;;;;;25.67;18.83;;;;;;;24.08;66.55;101483.28;5024654;28;20041;-76
2022/07/23 10:50:21;;;;;;;29.98;21.98;;;;;;;23.62;67.90;101481.91;5026649;28;20440;-76
2022/07/23 10:53:11;;;;;;;33.72;22.33;;;;;;;23.38;69.97;101488.00;5036254;28;20046;-76
2022/07/23 10:55:44;;;;;;;32.08;23.20;;;;;;;23.38;70.60;101488.00;5035861;28;20056;-75
2022/07/23 10:58:18;;;;;;;36.25;25.42;;;;;;;22.79;71.54;101485.09;5031712;28;20046;-75
2022/07/23 11:00:49;;;;;;;31.73;23.27;;;;;;;22.71;74.01;101481.38;5028014;28;20384;-75
2022/07/23 11:03:37;;;;;;;33.70;22.60;;;;;;;23.27;72.25;101495.47;5033970;28;20053;-77
2022/07/23 11:06:07;;;;;;;31.13;22.02;;;;;;;23.32;70.60;101504.44;5032722;28;20398;-75
2022/07/23 11:08:39;;;;;;;34.10;23.00;;;;;;;23.09;70.71;101505.66;5040922;28;20060;-76
2022/07/23 11:11:11;;;;;;;31.55;22.30;;;;;;;23.09;72.08;101502.84;5020340;28;20045;-76
2022/07/23 11:13:40;;;;;;;33.55;22.90;;;;;;;23.41;69.45;101509.75;5010200;28;20441;-76
2022/07/23 11:16:22;;;;;;;30.67;21.60;;;;;;;23.05;70.80;101507.59;5040328;28;20047;-75
2022/07/23 11:18:56;;;;;;;28.92;21.10;;;;;;;23.46;70.48;101512.25;5035954;28;20500;-76
2022/07/23 11:21:26;;;;;;;31.48;22.58;;;;;;;23.27;69.88;101509.53;5045045;28;20057;-75
2022/07/23 11:24:07;;;;;;;33.40;22.73;;;;;;;23.16;70.91;101500.13;5042213;28;20137;-76
2022/07/23 11:26:39;;;;;;;;;;;;;;;22.97;70.71;101503.06;5045570;28;20064;-75
2022/07/23 11:29:25;;;;;;;30.52;21.73;;;;;;;23.38;69.73;101499.25;5047479;28;19940;-77